Latest Weather Observations for Fawkner Beacon

IDV60801

Issued at 11:02 am EDT Thursday 11 February 2016 (issued every 30 minutes, with the page automatically refreshed every 10 minutes)

About weather observations | Map of weather stations | Latest weather observations for VIC | Other Formats
Station Details ID: 086376 Name: FAWKNER BEACON Lat: -37.91 Lon: 144.93 Height: 17.0 m
Data from the previous 72 hours. | See also: Recent months for locations in Victoria
Date/Time
EDT
Temp
°C
App
Temp
°C
Dew
Point
Rel
Hum
%
Delta-T
°C
Wind Press
QNH
hPa
Press
MSL
hPa
Rain
since 9 am
mm
Dir
 
Spd
km/h
Gust
km/h
Spd
kts
Gust
kts
11/11:00am - - - - - SSE 15 22 8 12 - - -
11/10:30am - - - - - SE 15 17 8 9 - - -
11/10:00am - - - - - ESE 15 20 8 11 - - -
11/09:30am - - - - - ESE 15 20 8 11 - - -
11/09:00am - - - - - SE 19 22 10 12 - - -
11/08:30am - - - - - SE 22 28 12 15 - - -
11/08:00am - - - - - SE 20 26 11 14 - - -
11/07:30am - - - - - SE 20 26 11 14 - - -
11/07:00am - - - - - SE 20 24 11 13 - - -
11/06:30am - - - - - SE 20 26 11 14 - - -
11/06:00am - - - - - SE 22 26 12 14 - - -
11/05:30am - - - - - SE 20 24 11 13 - - -
11/05:00am - - - - - SSE 20 24 11 13 - - -
11/04:30am - - - - - SSE 19 26 10 14 - - -
11/04:00am - - - - - SSE 20 26 11 14 - - -
11/03:30am - - - - - SE 20 26 11 14 - - -
11/03:00am - - - - - SSE 17 22 9 12 - - -
11/02:30am - - - - - SSE 17 22 9 12 - - -
11/02:00am - - - - - SSE 17 20 9 11 - - -
11/01:30am - - - - - SSE 17 22 9 12 - - -
11/01:00am - - - - - SSE 19 24 10 13 - - -
11/12:30am - - - - - SSE 20 26 11 14 - - -
11/12:00am - - - - - SSE 20 26 11 14 - - -
 
Date/Time
EDT
Temp
°C
App
Temp
°C
Dew
Point
Rel
Hum
%
Delta-T
°C
Wind Press
QNH
hPa
Press
MSL
hPa
Rain
since 9 am
mm
Dir
 
Spd
km/h
Gust
km/h
Spd
kts
Gust
kts
10/11:30pm - - - - - SSE 20 26 11 14 - - -
10/11:00pm - - - - - SSE 24 30 13 16 - - -
10/10:30pm - - - - - SSE 24 28 13 15 - - -
10/10:00pm - - - - - SSE 24 30 13 16 - - -
10/09:30pm - - - - - S 28 35 15 19 - - -
10/09:00pm - - - - - S 30 33 16 18 - - -
10/08:30pm - - - - - S 30 35 16 19 - - -
10/08:00pm - - - - - S 32 35 17 19 - - -
10/07:30pm - - - - - SSW 30 35 16 19 - - -
10/07:00pm - - - - - SSW 28 32 15 17 - - -
10/06:30pm - - - - - S 28 32 15 17 - - -
10/06:00pm - - - - - S 24 28 13 15 - - -
10/05:30pm - - - - - S 26 30 14 16 - - -
10/05:00pm - - - - - S 28 32 15 17 - - -
10/04:30pm - - - - - SSW 28 32 15 17 - - -
10/04:00pm - - - - - S 30 33 16 18 - - -
10/03:30pm - - - - - S 24 28 13 15 - - -
10/03:00pm - - - - - SSW 24 28 13 15 - - -
10/02:30pm - - - - - SSW 24 28 13 15 - - -
10/02:00pm - - - - - SSW 22 28 12 15 - - -
10/01:30pm - - - - - S 17 24 9 13 - - -
10/01:00pm - - - - - S 13 17 7 9 - - -
10/12:30pm - - - - - S 9 13 5 7 - - -
10/12:00pm - - - - - SSE 11 17 6 9 - - -
10/11:30am - - - - - SE 13 20 7 11 - - -
10/11:00am - - - - - SE 6 13 3 7 - - -
10/10:30am - - - - - SSE 7 13 4 7 - - -
10/10:00am - - - - - SSE 9 13 5 7 - - -
10/09:30am - - - - - S 9 15 5 8 - - -
10/09:00am - - - - - S 15 22 8 12 - - -
10/08:30am - - - - - SSE 13 17 7 9 - - -
10/08:00am - - - - - S 13 17 7 9 - - -
10/07:30am - - - - - S 7 11 4 6 - - -
10/07:00am - - - - - SSE 7 11 4 6 - - -
10/06:30am - - - - - SSW 9 15 5 8 - - -
10/06:00am - - - - - S 4 15 2 8 - - -
10/05:30am - - - - - ESE 6 11 3 6 - - -
10/05:00am - - - - - SSW 9 13 5 7 - - -
10/04:30am - - - - - S 11 15 6 8 - - -
10/04:00am - - - - - SSW 11 15 6 8 - - -
10/03:30am - - - - - SSW 9 15 5 8 - - -
10/03:00am - - - - - S 9 13 5 7 - - -
10/02:30am - - - - - SSW 13 15 7 8 - - -
10/02:00am - - - - - S 11 15 6 8 - - -
10/01:30am - - - - - SSE 11 15 6 8 - - -
10/01:00am - - - - - SSE 13 17 7 9 - - -
10/12:30am - - - - - SSE 15 20 8 11 - - -
10/12:00am - - - - - SSE 17 22 9 12 - - -
 
Date/Time
EDT
Temp
°C
App
Temp
°C
Dew
Point
Rel
Hum
%
Delta-T
°C
Wind Press
QNH
hPa
Press
MSL
hPa
Rain
since 9 am
mm
Dir
 
Spd
km/h
Gust
km/h
Spd
kts
Gust
kts
09/11:30pm - - - - - SSE 17 20 9 11 - - -
09/11:00pm - - - - - SSE 17 22 9 12 - - -
09/10:30pm - - - - - SE 19 24 10 13 - - -
09/10:00pm - - - - - SSE 19 24 10 13 - - -
09/09:30pm - - - - - SSE 19 22 10 12 - - -
09/09:00pm - - - - - SSE 20 22 11 12 - - -
09/08:30pm - - - - - SSE 22 24 12 13 - - -
09/08:00pm - - - - - SSE 26 30 14 16 - - -
09/07:30pm - - - - - S 33 39 18 21 - - -
09/07:00pm - - - - - S 35 41 19 22 - - -
09/06:30pm - - - - - S 35 41 19 22 - - -
09/06:00pm - - - - - S 35 41 19 22 - - -
09/05:30pm - - - - - SSW 35 41 19 22 - - -
09/05:00pm - - - - - SSW 35 41 19 22 - - -
09/04:30pm - - - - - SSW 33 41 18 22 - - -
09/04:00pm - - - - - SSW 35 41 19 22 - - -
09/03:30pm - - - - - SSW 32 39 17 21 - - -
09/03:00pm - - - - - SSW 30 35 16 19 - - -
09/02:30pm - - - - - SSW 28 30 15 16 - - -
09/02:00pm - - - - - SSW 28 32 15 17 - - -
09/01:30pm - - - - - SSW 22 26 12 14 - - -
09/01:00pm - - - - - SSW 22 26 12 14 - - -
09/12:30pm - - - - - SSW 19 22 10 12 - - -
09/12:00pm - - - - - SSW 15 20 8 11 - - -
09/11:30am - - - - - S 13 17 7 9 - - -
09/11:00am - - - - - SSE 13 20 7 11 - - -
09/10:30am - - - - - SSE 13 17 7 9 - - -
09/10:00am - - - - - SE 13 17 7 9 - - -
09/09:30am - - - - - SE 13 20 7 11 - - -
09/09:00am - - - - - SE 15 20 8 11 - - -
09/08:30am - - - - - SSE 9 13 5 7 - - -
09/08:00am - - - - - SSE 13 26 7 14 - - -
09/07:30am - - - - - SSE 15 22 8 12 - - -
09/07:00am - - - - - SE 13 17 7 9 - - -
09/06:30am - - - - - SE 11 17 6 9 - - -
09/06:00am - - - - - SE 13 20 7 11 - - -
09/05:30am - - - - - SE 17 24 9 13 - - -
09/05:00am - - - - - ESE 15 24 8 13 - - -
09/04:30am - - - - - SSE 22 28 12 15 - - -
09/04:00am - - - - - SE 17 24 9 13 - - -
09/03:30am - - - - - S 24 32 13 17 - - -
09/03:00am - - - - - SSE 22 28 12 15 - - -
09/02:30am - - - - - SSE 20 26 11 14 - - -
09/02:00am - - - - - SSE 17 22 9 12 - - -
09/01:30am - - - - - SE 19 24 10 13 - - -
09/01:00am - - - - - SE 22 28 12 15 - - -
09/12:30am - - - - - SE 19 24 10 13 - - -
09/12:00am - - - - - SSE 20 26 11 14 - - -
 
Date/Time
EDT
Temp
°C
App
Temp
°C
Dew
Point
Rel
Hum
%
Delta-T
°C
Wind Press
QNH
hPa
Press
MSL
hPa
Rain
since 9 am
mm
Dir
 
Spd
km/h
Gust
km/h
Spd
kts
Gust
kts
08/11:30pm - - - - - SSE 24 30 13 16 - - -
08/11:00pm - - - - - S 26 30 14 16 - - -
08/10:30pm - - - - - SSE 28 32 15 17 - - -
08/10:00pm - - - - - S 30 35 16 19 - - -
08/09:30pm - - - - - S 30 33 16 18 - - -
08/09:00pm - - - - - S 32 39 17 21 - - -
08/08:30pm - - - - - S 32 39 17 21 - - -
08/08:00pm - - - - - S 32 39 17 21 - - -
08/07:30pm - - - - - S 32 39 17 21 - - -
08/07:00pm - - - - - SSW 35 41 19 22 - - -
08/06:30pm - - - - - SSW 33 41 18 22 - - -
08/06:00pm - - - - - SSW 32 39 17 21 - - -
08/05:30pm - - - - - SSW 28 32 15 17 - - -
08/05:00pm - - - - - S 30 33 16 18 - - -
08/04:30pm - - - - - SSW 32 39 17 21 - - -
08/04:00pm - - - - - SSW 35 43 19 23 - - -
08/03:30pm - - - - - SSW 33 41 18 22 - - -
08/03:00pm - - - - - SSW 32 35 17 19 - - -
08/02:30pm - - - - - SSW 30 33 16 18 - - -
08/02:00pm - - - - - SSW 26 32 14 17 - - -
08/01:30pm - - - - - SSW 22 26 12 14 - - -
08/01:00pm - - - - - SSW 22 26 12 14 - - -
08/12:30pm - - - - - S 15 20 8 11 - - -
08/12:00pm - - - - - S 17 24 9 13 - - -
08/11:30am - - - - - SSW 22 26 12 14 - - -

Other Formats:

Comma delimited format used in spreadsheet applications
http://www.bom.gov.au/fwo/IDV60801/IDV60801.95872.axf

JavaScript Object Notation format (JSON) in row-major order
http://www.bom.gov.au/fwo/IDV60801/IDV60801.95872.json